Time;durP1;ratioP1;P1;durP2;ratioP2;P2;SDS_P1;SDS_P2;PMS_P1;PMS_P2;Temp;Humidity;BMP_temperature;BMP_pressure;BME280_temperature;BME280_humidity;BME280_pressure;Samples;Min_cycle;Max_cycle;Signal;HPM_P1;HPM_P2
2022/08/10 00:00:52;;;;;;;1.80;0.80;;;;;;;19.68;50.98;99485.75;5031453;28;20468;-62
2022/08/10 00:03:37;;;;;;;2.35;0.70;;;;;;;19.76;50.84;99489.50;5037100;28;20041;-62
2022/08/10 00:06:22;;;;;;;1.80;0.75;;;;;;;19.82;50.76;99484.44;5033257;28;20047;-62
2022/08/10 00:09:07;;;;;;;1.55;0.60;;;;;;;19.86;50.42;99484.13;5035517;28;20044;-61
2022/08/10 00:11:53;;;;;;;2.38;0.80;;;;;;;19.79;50.28;99482.06;5050295;28;20479;-61
2022/08/10 00:14:38;;;;;;;2.30;0.90;;;;;;;19.78;50.76;99477.72;5033253;28;20067;-61
2022/08/10 00:17:23;;;;;;;1.75;0.75;;;;;;;19.82;50.74;99486.25;5032224;28;20037;-62
2022/08/10 00:20:09;;;;;;;3.42;1.20;;;;;;;19.48;52.27;99478.84;5042278;28;20045;-62
2022/08/10 00:22:54;;;;;;;2.55;0.70;;;;;;;19.54;51.60;99481.75;5031570;28;20044;-61
2022/08/10 00:25:39;;;;;;;1.48;0.57;;;;;;;19.63;51.70;99481.88;5032541;28;20048;-61
2022/08/10 00:28:23;;;;;;;3.47;1.20;;;;;;;19.58;51.65;99484.97;5028340;28;20052;-62
2022/08/10 00:31:11;;;;;;;1.02;0.60;;;;;;;19.45;51.81;99483.47;5034554;28;20052;-62
2022/08/10 00:33:56;;;;;;;2.75;1.10;;;;;;;19.47;52.38;99491.28;5049349;28;20115;-61
2022/08/10 00:36:41;;;;;;;1.48;0.50;;;;;;;19.53;51.96;99489.88;5049248;28;20033;-61
2022/08/10 00:39:28;;;;;;;1.92;0.80;;;;;;;19.61;51.49;99490.00;5033569;28;20037;-61
2022/08/10 00:42:14;;;;;;;3.53;1.05;;;;;;;19.69;51.80;99499.88;5040443;28;20480;-62
2022/08/10 00:44:58;;;;;;;5.20;1.23;;;;;;;19.46;52.94;99492.28;5031983;28;20072;-62
2022/08/10 00:47:43;;;;;;;1.35;0.70;;;;;;;19.29;53.64;99489.38;5030951;28;20052;-62
2022/08/10 00:50:28;;;;;;;1.45;0.70;;;;;;;19.30;53.96;99493.72;5031752;28;20112;-62
2022/08/10 00:53:13;;;;;;;2.13;0.60;;;;;;;19.35;53.56;99489.78;5058772;28;20504;-61
2022/08/10 00:55:58;;;;;;;2.15;0.93;;;;;;;19.36;54.09;99479.03;5032404;28;20049;-62
2022/08/10 00:58:45;;;;;;;1.52;0.80;;;;;;;19.36;53.11;99483.50;5026345;28;20037;-61
2022/08/10 01:01:30;;;;;;;1.50;0.60;;;;;;;19.35;52.51;99476.50;5031771;28;20044;-61
2022/08/10 01:04:15;;;;;;;4.13;0.70;;;;;;;19.42;53.13;99482.94;5043120;28;20040;-62
2022/08/10 01:07:22;;;;;;;1.38;0.75;;;;;;;19.55;52.15;99482.59;5044614;28;20044;-62
2022/08/10 01:10:26;;;;;;;2.58;1.17;;;;;;;19.41;52.88;99475.94;5048955;28;20041;-64
2022/08/10 01:13:58;;;;;;;1.58;0.80;;;;;;;18.87;55.57;99481.78;5044580;28;20045;-61
2022/08/10 01:16:53;;;;;;;1.33;0.80;;;;;;;18.70;55.48;99484.16;5051607;28;20053;-62
2022/08/10 01:19:58;;;;;;;2.05;0.60;;;;;;;18.73;54.87;99477.72;5032522;28;20064;-62
2022/08/10 01:23:21;;;;;;;1.15;0.73;;;;;;;19.03;55.37;99467.94;5043131;28;20042;-62
2022/08/10 01:26:33;;;;;;;2.22;0.70;;;;;;;19.10;54.23;99481.47;5044291;28;20429;-61
2022/08/10 01:29:34;;;;;;;3.28;1.02;;;;;;;19.03;54.94;99478.53;5030149;28;20396;-60
2022/08/10 01:32:28;;;;;;;3.85;1.00;;;;;;;19.05;55.66;99482.72;5031163;28;20033;-62
2022/08/10 01:35:32;;;;;;;2.03;0.98;;;;;;;18.98;55.38;99486.91;5032178;28;20037;-61
2022/08/10 01:38:22;;;;;;;1.77;0.85;;;;;;;18.98;55.44;99478.13;5042263;28;20056;-61
2022/08/10 01:41:12;;;;;;;1.92;0.77;;;;;;;18.97;55.06;99479.94;5044414;28;20473;-61
2022/08/10 01:44:03;;;;;;;3.65;1.00;;;;;;;18.89;55.09;99482.47;5034385;28;20045;-61
2022/08/10 01:46:54;;;;;;;2.53;0.80;;;;;;;18.78;55.35;99480.81;5030149;28;20069;-62
2022/08/10 01:49:39;;;;;;;0.75;0.60;;;;;;;18.71;55.56;99473.41;5031324;28;20042;-60
2022/08/10 01:52:28;;;;;;;1.08;0.70;;;;;;;18.69;56.20;99483.31;5031012;28;20042;-61
2022/08/10 01:55:14;;;;;;;2.15;0.90;;;;;;;18.50;55.99;99485.97;5043959;28;20071;-61
2022/08/10 01:58:02;;;;;;;1.38;0.85;;;;;;;18.57;57.09;99485.28;5031449;28;20073;-61
2022/08/10 02:00:49;;;;;;;1.05;0.63;;;;;;;18.52;57.48;99487.53;5030269;28;20046;-61
2022/08/10 02:03:37;;;;;;;1.10;0.63;;;;;;;18.54;57.30;99485.56;5042911;28;20048;-61
2022/08/10 02:06:26;;;;;;;1.67;1.00;;;;;;;18.68;56.06;99480.81;5030957;28;20069;-61
2022/08/10 02:09:17;;;;;;;2.30;0.80;;;;;;;18.64;56.79;99477.59;5030205;28;20042;-61
2022/08/10 02:12:06;;;;;;;1.33;0.60;;;;;;;18.53;57.00;99481.25;5043794;28;20057;-61
2022/08/10 02:14:57;;;;;;;1.60;0.80;;;;;;;18.58;57.15;99483.47;5030938;28;20045;-62
2022/08/10 02:17:53;;;;;;;2.17;1.10;;;;;;;18.43;58.01;99491.00;5042746;28;20045;-61
2022/08/10 02:20:46;;;;;;;2.03;0.80;;;;;;;18.30;58.33;99486.81;5030900;28;20037;-61
2022/08/10 02:23:36;;;;;;;1.73;0.77;;;;;;;18.19;58.73;99489.59;5031071;28;20496;-61
2022/08/10 02:26:22;;;;;;;2.47;0.98;;;;;;;18.28;58.50;99496.72;5030977;28;20492;-61
2022/08/10 02:29:11;;;;;;;2.35;0.90;;;;;;;18.19;59.10;99502.84;5034485;28;20053;-61
2022/08/10 02:31:55;;;;;;;2.20;0.77;;;;;;;18.25;58.51;99496.16;5035297;28;20037;-61
2022/08/10 02:34:41;;;;;;;2.00;0.90;;;;;;;18.19;59.42;99493.09;5033460;28;20038;-61
2022/08/10 02:37:28;;;;;;;1.23;0.73;;;;;;;18.22;58.38;99492.81;5034494;28;20343;-61
2022/08/10 02:40:13;;;;;;;2.35;0.75;;;;;;;18.15;59.17;99496.97;5043061;28;20033;-60
2022/08/10 02:43:08;;;;;;;3.10;0.85;;;;;;;18.28;57.71;99498.53;5034365;28;20133;-61
2022/08/10 02:46:02;;;;;;;1.58;0.88;;;;;;;18.32;58.75;99506.09;5060228;28;20400;-61
2022/08/10 02:48:57;;;;;;;2.03;1.00;;;;;;;18.32;59.29;99498.13;5036086;28;20503;-61
2022/08/10 02:51:45;;;;;;;1.38;0.70;;;;;;;18.30;57.44;99500.06;5048153;28;20048;-61
2022/08/10 02:54:36;;;;;;;2.03;1.00;;;;;;;18.36;56.57;99503.16;5033720;28;20127;-61
2022/08/10 02:57:32;;;;;;;3.83;0.70;;;;;;;18.41;57.25;99508.88;5034023;28;20037;-61
2022/08/10 03:00:17;;;;;;;1.13;0.90;;;;;;;18.43;57.73;99505.09;5033127;28;20132;-62
2022/08/10 03:03:04;;;;;;;2.90;1.02;;;;;;;18.42;58.32;99508.75;5032588;28;20084;-61
2022/08/10 03:05:54;;;;;;;3.42;0.80;;;;;;;18.27;58.61;99510.09;5018867;28;20449;-61
2022/08/10 03:08:42;;;;;;;3.00;1.00;;;;;;;18.15;59.25;99510.22;5033694;28;20052;-62
2022/08/10 03:11:29;;;;;;;1.85;1.15;;;;;;;18.13;58.05;99511.34;5060037;28;20030;-61
2022/08/10 03:14:15;;;;;;;1.33;0.80;;;;;;;18.26;57.14;99514.59;5045528;28;20457;-61
2022/08/10 03:17:02;;;;;;;2.90;1.13;;;;;;;18.33;57.76;99506.91;5040871;28;20064;-60
2022/08/10 03:19:47;;;;;;;1.83;0.90;;;;;;;18.32;58.21;99513.19;5035209;28;20064;-60
2022/08/10 03:22:33;;;;;;;1.40;0.80;;;;;;;18.29;58.14;99506.34;5045540;28;20056;-62
2022/08/10 03:25:21;;;;;;;3.25;0.90;;;;;;;18.40;57.81;99513.34;5033765;28;20033;-61
2022/08/10 03:28:10;;;;;;;1.75;0.98;;;;;;;18.45;57.25;99507.63;5033309;28;20060;-62
2022/08/10 03:30:58;;;;;;;3.25;0.93;;;;;;;18.38;57.97;99512.63;5033474;28;20045;-61
2022/08/10 03:33:44;;;;;;;1.05;0.75;;;;;;;18.46;58.32;99518.09;5079195;28;20048;-61
2022/08/10 03:36:30;;;;;;;3.25;1.20;;;;;;;18.58;57.99;99520.59;5035980;28;20362;-61
2022/08/10 03:39:15;;;;;;;3.47;1.20;;;;;;;18.48;58.39;99517.94;5024561;28;20049;-61
2022/08/10 03:42:02;;;;;;;2.28;1.02;;;;;;;18.35;58.81;99518.22;5042502;28;20112;-61
2022/08/10 03:44:51;;;;;;;1.73;1.00;;;;;;;18.10;59.77;99523.84;5033800;28;20329;-61
2022/08/10 03:47:40;;;;;;;1.95;0.73;;;;;;;17.71;60.16;99532.53;5044465;28;20053;-61
2022/08/10 03:50:27;;;;;;;3.45;1.10;;;;;;;17.57;62.78;99530.22;5036755;28;20127;-60
2022/08/10 03:53:14;;;;;;;2.03;1.10;;;;;;;17.63;62.76;99534.16;5038191;28;20033;-61
2022/08/10 03:56:00;;;;;;;1.23;1.00;;;;;;;17.57;61.88;99527.56;5049795;28;20052;-61
2022/08/10 03:58:45;;;;;;;4.22;1.17;;;;;;;17.54;63.47;99518.09;5031703;28;20749;-61
2022/08/10 04:01:32;;;;;;;1.90;0.80;;;;;;;17.56;62.51;99526.72;5032830;28;20037;-61
2022/08/10 04:04:19;;;;;;;1.38;0.80;;;;;;;17.64;62.28;99527.88;5032627;28;20091;-62
2022/08/10 04:07:05;;;;;;;2.47;1.10;;;;;;;17.61;62.91;99523.69;5032868;28;20038;-61
2022/08/10 04:09:50;;;;;;;1.85;0.98;;;;;;;17.57;62.96;99528.44;5047328;28;20491;-62
2022/08/10 04:12:35;;;;;;;1.52;0.70;;;;;;;17.55;62.98;99530.34;5033985;28;20032;-61
2022/08/10 04:15:20;;;;;;;2.40;0.90;;;;;;;17.50;62.29;99532.56;5032523;28;20040;-61
2022/08/10 04:18:07;;;;;;;1.27;0.80;;;;;;;17.56;62.77;99539.97;5032620;28;20041;-61
2022/08/10 04:21:16;;;;;;;2.03;1.20;;;;;;;17.56;63.64;99542.63;5032465;28;20116;-61
2022/08/10 04:24:02;;;;;;;1.10;0.70;;;;;;;17.65;62.02;99538.34;5032384;28;20045;-61
2022/08/10 04:26:48;;;;;;;1.95;1.17;;;;;;;17.67;62.56;99547.00;5032750;28;20381;-61
2022/08/10 04:29:33;;;;;;;2.05;1.13;;;;;;;17.54;62.88;99541.94;5032576;28;20087;-60
2022/08/10 04:32:20;;;;;;;1.17;0.82;;;;;;;17.42;62.99;99551.75;5031492;28;20049;-62
2022/08/10 04:35:06;;;;;;;2.17;1.20;;;;;;;17.51;62.91;99555.44;5017094;28;20369;-60
2022/08/10 04:37:53;;;;;;;3.67;1.05;;;;;;;17.61;62.12;99542.22;5032150;28;20096;-62
2022/08/10 04:40:42;;;;;;;4.30;1.10;;;;;;;17.69;62.18;99550.34;5035638;28;20037;-61
2022/08/10 04:43:27;;;;;;;16.08;1.65;;;;;;;17.73;61.91;99551.78;5041253;28;20037;-61
2022/08/10 04:46:14;;;;;;;4.30;1.20;;;;;;;17.69;62.57;99549.53;5031608;28;20059;-61
2022/08/10 04:48:59;;;;;;;2.75;1.23;;;;;;;17.77;61.58;99548.88;5031918;28;20049;-61
2022/08/10 04:51:44;;;;;;;1.58;1.13;;;;;;;17.95;61.75;99559.69;5030047;28;20037;-61
2022/08/10 04:54:28;;;;;;;2.33;1.40;;;;;;;18.07;60.76;99560.41;5043021;28;20041;-62
2022/08/10 04:57:14;;;;;;;2.08;1.25;;;;;;;18.06;60.95;99559.56;5050678;28;20045;-62
2022/08/10 04:59:59;;;;;;;4.53;1.27;;;;;;;18.16;61.94;99557.00;5032025;28;20353;-61
2022/08/10 05:02:57;;;;;;;1.80;1.00;;;;;;;18.38;61.10;99552.41;5031823;28;20045;-63
2022/08/10 05:05:45;;;;;;;2.95;1.27;;;;;;;18.63;59.26;99557.34;5046581;28;20502;-61
2022/08/10 05:08:30;;;;;;;2.20;1.20;;;;;;;18.56;60.02;99555.25;5023898;28;20052;-61
2022/08/10 05:11:15;;;;;;;3.92;1.30;;;;;;;18.71;60.27;99555.69;5046163;28;20109;-61
2022/08/10 05:13:59;;;;;;;1.48;1.00;;;;;;;18.61;60.20;99565.44;5043641;28;20095;-60
2022/08/10 05:16:44;;;;;;;2.90;1.40;;;;;;;18.62;60.20;99560.97;5031696;28;20052;-61
2022/08/10 05:19:29;;;;;;;3.05;1.50;;;;;;;18.79;59.98;99562.09;5036525;28;20037;-61
2022/08/10 05:22:13;;;;;;;3.40;1.48;;;;;;;18.77;59.71;99558.75;5035945;28;20041;-62
2022/08/10 05:24:58;;;;;;;2.92;1.30;;;;;;;18.64;60.95;99554.53;5040321;28;20079;-61
2022/08/10 05:27:44;;;;;;;1.90;1.13;;;;;;;18.66;60.58;99562.34;5031895;28;20048;-61
2022/08/10 05:30:29;;;;;;;2.47;1.20;;;;;;;19.16;58.78;99556.09;5033262;28;20041;-61
2022/08/10 05:33:13;;;;;;;5.75;1.80;;;;;;;19.37;58.19;99551.59;5038770;28;20048;-62
2022/08/10 05:35:59;;;;;;;2.33;1.48;;;;;;;19.06;59.42;99553.41;5039051;28;20033;-62
2022/08/10 05:38:44;;;;;;;3.53;1.70;;;;;;;18.89;60.58;99560.28;5033394;28;20038;-61
2022/08/10 05:41:29;;;;;;;3.40;1.67;;;;;;;19.15;59.85;99559.72;5030400;28;20068;-62
2022/08/10 05:44:15;;;;;;;2.40;1.55;;;;;;;19.17;59.14;99557.78;5029951;28;20037;-61
2022/08/10 05:46:59;;;;;;;2.97;1.83;;;;;;;19.22;58.78;99565.31;5030264;28;20361;-62
2022/08/10 05:49:46;;;;;;;1.85;1.10;;;;;;;19.41;58.93;99564.44;5031455;28;20044;-61
2022/08/10 05:52:32;;;;;;;3.55;1.58;;;;;;;19.60;57.99;99564.53;5035806;28;20038;-63
2022/08/10 05:55:18;;;;;;;2.67;1.20;;;;;;;19.70;57.73;99563.50;5043958;28;20029;-61
2022/08/10 05:58:03;;;;;;;2.58;1.63;;;;;;;19.60;58.24;99561.88;5031953;28;20046;-62
2022/08/10 06:00:54;;;;;;;2.63;1.40;;;;;;;19.47;58.96;99564.84;5029806;28;20463;-62
2022/08/10 06:03:49;;;;;;;4.97;1.33;;;;;;;19.46;58.96;99561.34;5033586;28;20049;-62
2022/08/10 06:06:35;;;;;;;3.03;1.55;;;;;;;19.58;58.86;99562.84;5042679;28;20088;-61
2022/08/10 06:09:23;;;;;;;5.97;1.45;;;;;;;19.81;58.61;99556.34;5039233;28;20117;-61
2022/08/10 06:12:10;;;;;;;2.88;1.33;;;;;;;20.26;56.84;99564.53;5048103;28;20071;-62
2022/08/10 06:14:59;;;;;;;3.78;1.40;;;;;;;20.52;56.19;99559.34;5051755;28;20522;-61
2022/08/10 06:17:45;;;;;;;6.05;1.67;;;;;;;20.53;56.06;99554.88;5034071;28;20087;-61
2022/08/10 06:20:30;;;;;;;2.42;1.30;;;;;;;20.88;54.94;99563.84;5033208;28;20037;-61
2022/08/10 06:23:16;;;;;;;3.65;1.23;;;;;;;20.96;54.59;99567.56;5035811;28;20496;-61
2022/08/10 06:26:02;;;;;;;4.00;1.77;;;;;;;20.88;54.79;99573.63;5034596;28;20445;-60
2022/08/10 06:28:51;;;;;;;3.90;1.30;;;;;;;21.26;53.73;99561.00;5035590;28;20772;-61
2022/08/10 06:31:42;;;;;;;2.88;1.23;;;;;;;21.34;53.83;99562.03;5034373;28;20068;-61
2022/08/10 06:34:55;;;;;;;4.15;1.50;;;;;;;21.59;53.08;99560.34;5042917;28;20040;-62
2022/08/10 06:37:42;;;;;;;2.95;1.50;;;;;;;21.88;52.33;99564.56;5034529;28;20083;-61
2022/08/10 06:40:34;;;;;;;2.45;1.50;;;;;;;22.37;51.25;99557.72;5046503;28;20112;-62
2022/08/10 06:43:21;;;;;;;2.90;1.27;;;;;;;22.32;50.77;99559.19;5033043;28;20044;-60
2022/08/10 06:46:14;;;;;;;1.52;1.10;;;;;;;22.72;50.06;99559.47;5032879;28;20081;-62
2022/08/10 06:49:01;;;;;;;2.38;1.23;;;;;;;22.42;50.57;99553.69;5039995;28;20449;-62
2022/08/10 06:51:49;;;;;;;3.90;1.70;;;;;;;22.36;50.94;99552.53;5041171;28;20045;-63
2022/08/10 06:54:35;;;;;;;6.30;1.73;;;;;;;22.64;50.23;99561.13;5035672;28;20030;-61
2022/08/10 06:57:26;;;;;;;2.33;1.20;;;;;;;23.53;47.43;99557.91;5040643;28;20044;-62
2022/08/10 07:00:13;;;;;;;3.15;1.30;;;;;;;24.24;46.33;99552.66;5032799;28;20061;-62
2022/08/10 07:03:05;;;;;;;1.42;0.98;;;;;;;24.42;45.02;99556.88;5046311;28;20029;-61
2022/08/10 07:05:50;;;;;;;4.00;1.52;;;;;;;24.97;44.30;99562.22;5044462;28;20107;-62
2022/08/10 07:08:37;;;;;;;1.95;0.90;;;;;;;24.72;42.37;99554.34;5036758;28;20033;-61
2022/08/10 07:11:23;;;;;;;3.38;0.98;;;;;;;24.55;42.05;99555.47;5033592;28;20373;-61
2022/08/10 07:14:11;;;;;;;2.83;1.10;;;;;;;24.74;42.17;99559.53;5042232;28;20112;-61
2022/08/10 07:16:58;;;;;;;3.60;1.23;;;;;;;24.50;44.95;99561.34;5033542;28;20099;-61
2022/08/10 07:19:46;;;;;;;3.72;1.27;;;;;;;24.59;44.55;99556.78;5033544;28;20524;-61
2022/08/10 07:22:34;;;;;;;3.70;1.20;;;;;;;24.81;44.45;99567.66;5042304;28;20064;-61
2022/08/10 07:25:24;;;;;;;2.38;1.10;;;;;;;24.71;44.08;99558.03;5033401;28;20041;-61
2022/08/10 07:28:09;;;;;;;3.85;1.80;;;;;;;25.52;42.48;99555.00;5061003;28;20042;-61
2022/08/10 07:30:56;;;;;;;4.22;1.20;;;;;;;24.75;44.35;99563.03;5033114;28;20045;-62
2022/08/10 07:33:42;;;;;;;3.92;1.25;;;;;;;24.87;44.26;99563.44;5037578;28;20061;-62
2022/08/10 07:36:30;;;;;;;4.88;1.42;;;;;;;25.46;42.12;99560.06;5043540;28;20052;-63
2022/08/10 07:39:15;;;;;;;1.27;0.90;;;;;;;25.45;41.18;99552.22;5034219;28;20084;-62
2022/08/10 07:42:04;;;;;;;1.63;0.98;;;;;;;25.91;41.30;99553.06;5041620;28;20049;-61
2022/08/10 07:44:50;;;;;;;1.95;1.02;;;;;;;26.06;40.67;99545.00;5032971;28;20076;-61
2022/08/10 07:47:51;;;;;;;4.93;1.40;;;;;;;26.71;39.96;99546.94;5033011;28;20127;-61
2022/08/10 07:50:38;;;;;;;3.03;1.77;;;;;;;26.59;39.85;99548.50;5032949;28;21401;-61
2022/08/10 07:53:26;;;;;;;3.20;1.13;;;;;;;26.39;39.39;99549.94;5032540;28;20095;-61
2022/08/10 07:56:12;;;;;;;2.60;1.35;;;;;;;26.87;37.15;99548.53;5044783;28;20033;-62
2022/08/10 07:59:08;;;;;;;2.78;1.10;;;;;;;27.84;35.51;99547.16;5059770;28;20488;-61
2022/08/10 08:01:54;;;;;;;2.63;1.15;;;;;;;27.41;36.42;99550.81;5059708;28;20045;-61
2022/08/10 08:04:40;;;;;;;2.38;1.05;;;;;;;27.84;35.95;99543.63;5044663;28;20045;-62
2022/08/10 08:07:26;;;;;;;2.53;1.10;;;;;;;28.46;34.61;99545.50;5032293;28;20038;-62
2022/08/10 08:10:15;;;;;;;1.15;0.90;;;;;;;28.21;35.28;99538.78;5045492;28;20543;-62
2022/08/10 08:13:01;;;;;;;4.07;1.13;;;;;;;27.36;36.42;99555.94;5032601;28;20038;-61
2022/08/10 08:15:47;;;;;;;3.08;1.00;;;;;;;28.23;36.34;99544.78;5031292;28;20037;-62
2022/08/10 08:18:34;;;;;;;6.47;1.20;;;;;;;28.20;36.43;99537.13;5031404;28;20041;-62
2022/08/10 08:21:21;;;;;;;1.58;0.77;;;;;;;28.09;36.70;99543.91;5032531;28;20037;-62
2022/08/10 08:24:07;;;;;;;2.60;1.08;;;;;;;28.69;35.67;99525.41;5032381;28;20053;-62
2022/08/10 08:26:54;;;;;;;2.83;1.27;;;;;;;28.23;36.20;99533.19;5031933;28;20103;-62
2022/08/10 08:29:41;;;;;;;1.30;0.95;;;;;;;27.80;36.95;99537.78;5059128;28;20045;-62
2022/08/10 08:32:29;;;;;;;1.90;0.90;;;;;;;27.59;38.68;99526.09;5030955;28;20103;-63
2022/08/10 08:35:16;;;;;;;2.38;1.00;;;;;;;28.37;36.23;99537.59;5037242;28;20041;-61
2022/08/10 08:38:02;;;;;;;2.22;1.13;;;;;;;27.55;37.69;99540.94;5032507;28;20041;-62
2022/08/10 08:40:59;;;;;;;3.13;1.30;;;;;;;28.45;36.96;99531.19;5072355;28;20094;-62
2022/08/10 08:44:08;;;;;;;2.58;0.90;;;;;;;29.08;35.25;99536.44;5038555;28;20094;-62
2022/08/10 08:47:01;;;;;;;1.83;0.98;;;;;;;29.62;34.64;99528.25;5030639;28;20050;-62
2022/08/10 08:50:15;;;;;;;5.05;1.30;;;;;;;29.46;35.07;99527.63;5037871;28;20042;-62
2022/08/10 08:53:33;;;;;;;2.15;0.85;;;;;;;30.59;31.54;99531.91;5034719;28;20511;-62
2022/08/10 08:56:32;;;;;;;4.88;1.27;;;;;;;29.86;33.53;99528.56;5036738;28;20037;-62
2022/08/10 08:59:38;;;;;;;3.50;1.70;;;;;;;30.42;33.29;99525.38;5032816;28;20056;-63
2022/08/10 09:02:57;;;;;;;3.17;1.00;;;;;;;31.40;30.65;99543.97;5033657;28;20134;-62
2022/08/10 09:06:03;;;;;;;3.20;0.80;;;;;;;31.44;29.17;99541.59;5032982;28;20042;-62
2022/08/10 09:09:16;;;;;;;3.53;0.90;;;;;;;31.31;28.59;99537.97;5032774;28;20088;-63
2022/08/10 09:12:26;;;;;;;2.55;0.80;;;;;;;31.40;28.60;99533.13;5032891;28;20108;-64
2022/08/10 09:15:22;;;;;;;1.17;0.73;;;;;;;32.29;27.86;99528.28;5031893;28;20076;-62
2022/08/10 09:18:18;;;;;;;1.55;0.90;;;;;;;32.58;27.59;99524.94;5043837;28;20345;-63
2022/08/10 09:21:15;;;;;;;2.22;0.95;;;;;;;33.22;25.95;99519.94;5031650;28;20041;-62
2022/08/10 09:24:13;;;;;;;3.40;1.65;;;;;;;31.54;27.38;99531.09;5033231;28;20350;-61
2022/08/10 09:27:08;;;;;;;1.52;1.00;;;;;;;32.66;26.79;99523.81;5058254;28;20068;-63
2022/08/10 09:29:56;;;;;;;2.70;0.57;;;;;;;32.50;25.87;99514.41;5040716;28;20041;-62
2022/08/10 09:32:47;;;;;;;1.75;0.70;;;;;;;30.56;28.65;99521.53;5030498;28;20053;-63
2022/08/10 09:35:37;;;;;;;1.63;0.80;;;;;;;28.36;31.34;99513.56;5034205;28;20034;-62
2022/08/10 09:38:22;;;;;;;;;;;;;;;29.55;30.10;99509.34;5061234;28;20039;-61
2022/08/10 09:41:29;;;;;;;1.85;0.68;;;;;;;29.59;29.04;99507.09;5048661;28;20390;-61
2022/08/10 09:44:43;;;;;;;2.45;0.77;;;;;;;30.46;28.58;99505.81;5050350;28;20086;-63
2022/08/10 09:47:33;;;;;;;2.70;0.65;;;;;;;31.69;26.90;99497.41;5038611;28;20480;-63
2022/08/10 09:50:50;;;;;;;1.35;0.68;;;;;;;32.25;25.92;99491.06;5045749;28;20060;-63
2022/08/10 09:53:53;;;;;;;1.67;0.52;;;;;;;32.41;27.05;99484.13;5034986;28;20444;-62
2022/08/10 09:57:00;;;;;;;1.30;0.68;;;;;;;31.42;27.17;99493.13;5045792;28;20056;-62
2022/08/10 10:00:07;;;;;;;1.23;0.65;;;;;;;30.84;28.34;99487.03;5034029;28;20040;-63
2022/08/10 10:03:07;;;;;;;1.75;0.80;;;;;;;30.08;28.81;99477.78;5046699;28;20365;-62
2022/08/10 10:06:08;;;;;;;1.50;0.60;;;;;;;31.65;26.45;99472.66;5033909;28;20065;-62
2022/08/10 10:09:10;;;;;;;3.05;0.50;;;;;;;31.91;27.98;99472.56;5036174;28;20176;-63
2022/08/10 10:12:17;;;;;;;1.40;0.55;;;;;;;33.72;24.54;99466.97;5041349;28;20064;-62
2022/08/10 10:15:30;;;;;;;2.33;0.60;;;;;;;33.90;23.50;99457.00;5033531;28;20503;-62
2022/08/10 10:18:40;;;;;;;0.95;0.50;;;;;;;32.31;25.19;99461.16;5033776;28;20041;-62
2022/08/10 10:21:37;;;;;;;0.90;0.57;;;;;;;29.73;27.41;99456.59;5034694;28;20033;-62
2022/08/10 10:24:33;;;;;;;1.30;0.60;;;;;;;29.24;29.31;99465.88;5033691;28;20507;-61
2022/08/10 10:27:24;;;;;;;1.25;0.60;;;;;;;29.59;30.13;99463.91;5034595;28;20471;-62
2022/08/10 10:30:11;;;;;;;1.23;0.50;;;;;;;29.66;29.10;99453.06;5036192;28;20442;-61
2022/08/10 10:33:07;;;;;;;0.95;0.73;;;;;;;30.78;28.20;99452.75;5033270;28;20473;-62
2022/08/10 10:35:55;;;;;;;2.30;0.73;;;;;;;31.32;26.07;99444.91;5032880;28;20049;-62
2022/08/10 10:38:42;;;;;;;1.33;0.55;;;;;;;31.92;25.72;99441.69;5034333;28;20049;-62
2022/08/10 10:42:00;;;;;;;0.80;0.50;;;;;;;31.35;26.28;99440.94;5040399;28;20033;-62
2022/08/10 10:45:16;;;;;;;2.40;1.45;;;;;;;29.50;26.95;99444.41;5037012;28;20171;-62
2022/08/10 10:48:18;;;;;;;1.52;0.70;;;;;;;29.33;27.94;99444.88;5040936;28;20063;-62
2022/08/10 10:51:17;;;;;;;1.73;0.57;;;;;;;28.57;28.82;99438.97;5040252;28;20045;-62
2022/08/10 10:54:11;;;;;;;3.40;0.70;;;;;;;28.29;29.34;99443.50;5033117;28;20149;-62
2022/08/10 10:57:11;;;;;;;2.25;0.80;;;;;;;28.93;29.72;99437.69;5052078;28;20045;-61
2022/08/10 11:00:24;;;;;;;2.30;0.60;;;;;;;30.89;26.41;99437.69;5033308;28;20396;-62
2022/08/10 11:03:27;;;;;;;2.10;0.68;;;;;;;32.19;25.36;99433.19;5041331;28;20116;-62
2022/08/10 11:06:50;;;;;;;1.25;0.60;;;;;;;32.47;23.77;99433.56;5034209;28;20033;-62
2022/08/10 11:09:44;;;;;;;1.63;0.90;;;;;;;31.16;24.89;99440.94;5033881;28;20045;-62
2022/08/10 11:12:51;;;;;;;1.30;0.70;;;;;;;30.06;26.11;99436.69;5033764;28;20038;-61
2022/08/10 11:15:42;;;;;;;2.42;0.70;;;;;;;30.18;27.02;99434.09;5033710;28;20037;-61
2022/08/10 11:18:54;;;;;;;1.83;0.43;;;;;;;31.31;24.55;99429.75;5037140;28;20056;-63
2022/08/10 11:22:06;;;;;;;0.77;0.50;;;;;;;31.14;24.80;99437.63;5044352;28;20457;-62
2022/08/10 11:25:10;;;;;;;2.35;0.70;;;;;;;30.30;25.90;99426.13;5018578;28;20048;-62
2022/08/10 11:28:24;;;;;;;1.25;0.60;;;;;;;30.54;25.34;99423.66;5042889;28;20395;-63
2022/08/10 11:31:25;;;;;;;1.13;0.73;;;;;;;30.26;25.63;99438.41;5066147;28;20421;-62
2022/08/10 11:34:59;;;;;;;2.15;0.80;;;;;;;30.64;26.26;99435.81;5035233;28;20034;-61
2022/08/10 11:38:26;;;;;;;1.23;0.82;;;;;;;30.63;27.06;99428.78;5032299;28;20045;-62
2022/08/10 11:41:39;;;;;;;1.48;0.77;;;;;;;30.59;25.92;99436.50;5067632;28;20495;-61
2022/08/10 11:44:29;;;;;;;1.40;0.60;;;;;;;28.88;26.56;99421.31;5046301;28;20071;-62
2022/08/10 11:47:19;;;;;;;;;;;;;;;29.54;26.43;99428.63;5033723;28;20080;-62
2022/08/10 11:50:18;;;;;;;3.33;0.65;;;;;;;31.39;24.54;99425.94;5033317;28;19928;-62
2022/08/10 11:53:20;;;;;;;1.45;0.60;;;;;;;31.88;24.30;99425.06;5033099;28;20481;-61
2022/08/10 11:56:14;;;;;;;0.68;0.40;;;;;;;31.44;24.01;99423.38;5044769;28;20041;-62
2022/08/10 12:02:05;;;;;;;1.33;0.60;;;;;;;31.48;24.37;99421.06;5017536;28;20034;-62
2022/08/10 12:04:54;;;;;;;3.65;0.77;;;;;;;32.06;23.02;99418.81;5038949;28;20610;-62
2022/08/10 12:07:47;;;;;;;1.50;0.52;;;;;;;31.97;23.53;99422.91;5032781;28;20040;-62
2022/08/10 12:10:34;;;;;;;0.90;0.52;;;;;;;31.70;23.32;99415.13;5045821;28;20049;-62
2022/08/10 12:13:27;;;;;;;1.15;0.70;;;;;;;32.80;23.09;99408.63;5051289;28;20515;-63
2022/08/10 12:16:17;;;;;;;3.78;0.80;;;;;;;34.50;20.52;99402.28;5032666;28;20068;-62
2022/08/10 12:19:09;;;;;;;1.13;0.63;;;;;;;34.63;21.41;99406.53;5032444;28;20072;-63
2022/08/10 12:22:09;;;;;;;0.80;0.60;;;;;;;35.35;18.87;99403.16;5033400;28;20038;-63
2022/08/10 12:25:02;;;;;;;1.77;0.40;;;;;;;35.07;19.75;99388.63;5032377;28;20155;-63
2022/08/10 12:27:53;;;;;;;1.13;0.63;;;;;;;34.21;20.44;99394.22;5032419;28;20034;-62
2022/08/10 12:30:45;;;;;;;0.90;0.60;;;;;;;32.87;22.30;99397.63;5017387;28;20033;-63
2022/08/10 12:33:45;;;;;;;0.85;0.47;;;;;;;32.31;22.97;99398.81;5044132;28;20464;-63
2022/08/10 12:36:38;;;;;;;2.90;0.80;;;;;;;31.61;23.13;99390.28;5030649;28;20074;-62
2022/08/10 12:39:31;;;;;;;1.52;0.57;;;;;;;31.06;25.29;99389.28;5034296;28;20283;-62
2022/08/10 12:42:36;;;;;;;0.65;0.45;;;;;;;33.12;21.86;99382.16;5037619;28;20077;-62
2022/08/10 12:45:39;;;;;;;0.90;0.50;;;;;;;34.29;20.11;99386.47;5038177;28;20128;-64
2022/08/10 12:48:38;;;;;;;1.48;0.40;;;;;;;34.97;19.80;99373.84;5043065;28;20051;-63
2022/08/10 12:51:29;;;;;;;1.00;0.60;;;;;;;35.94;19.51;99368.84;5032049;28;20049;-62
2022/08/10 12:54:21;;;;;;;2.15;0.70;;;;;;;34.14;19.69;99372.63;5030771;28;20048;-62
2022/08/10 12:57:11;;;;;;;1.20;0.40;;;;;;;32.47;20.93;99368.53;5031042;28;20095;-61
2022/08/10 13:00:00;;;;;;;1.02;0.47;;;;;;;32.49;22.39;99369.97;5030982;28;20038;-62
2022/08/10 13:02:47;;;;;;;1.15;0.60;;;;;;;33.17;22.84;99374.13;5044572;28;20037;-61
2022/08/10 13:05:33;;;;;;;1.35;0.60;;;;;;;32.12;22.69;99364.75;5031996;28;20396;-62
2022/08/10 13:11:27;;;;;;;2.03;0.50;;;;;;;31.63;24.75;99360.28;5041916;28;20037;-63
2022/08/10 13:14:41;;;;;;;1.23;0.75;;;;;;;31.39;23.74;99360.16;5040876;28;20037;-61
2022/08/10 13:17:31;;;;;;;;;;;;;;;30.37;25.29;99363.97;5051142;28;20033;-61
2022/08/10 13:20:23;;;;;;;5.82;1.30;;;;;;;30.02;24.34;99359.00;5036905;28;19929;-62
2022/08/10 13:23:16;;;;;;;1.48;0.63;;;;;;;30.47;24.12;99352.66;5038213;28;20037;-61
2022/08/10 13:26:03;;;;;;;2.25;1.17;;;;;;;32.11;22.11;99349.56;5031626;28;20041;-62
2022/08/10 13:28:54;;;;;;;3.08;1.70;;;;;;;32.55;21.61;99341.94;5058036;28;20042;-63
2022/08/10 13:31:45;;;;;;;0.70;0.40;;;;;;;33.36;20.43;99330.53;5049303;28;20430;-63
2022/08/10 13:34:31;;;;;;;1.58;0.70;;;;;;;34.14;19.17;99337.31;5057377;28;20033;-62
2022/08/10 13:37:24;;;;;;;2.50;0.63;;;;;;;34.90;19.58;99333.22;5030615;28;20139;-62